New Creation — 3EGO6 — position and weather

sailwx.info

Track history (hours):
 
Tides and Currents Weather Stations Pressure Air Temp Water Temp Dewpoint Dewpoint Depression Visibility Wind Speed Wind Dir Waves Ship Positions

New Creation

Last reported at 2014-Dec-17 09:33 UTC. Time now 2014-Dec-18 22:26 UTC.
Position N 31°01' E 122°22'.

Length 176 m; draft 6 m.

Type: Cargo ship. MMSI: 353507000.

Date/timePositionNaut miles runAvg speedWind from/ knotsBaromVisibWave heightAir tempDewpointWater temp
2014-Dec-17 09:33N 31°01' E 122°22'1111.4
2014-Dec-17 08:33N 31°03' E 122°09'1010.2
2014-Dec-17 07:33N 31°06' E 121°57'1413.7
2014-Dec-17 06:33N 31°16' E 121°46'1212.3
2014-Dec-17 05:33N 31°23' E 121°34'10 9.9
2014-Dec-17 04:33N 31°30' E 121°25'1111.3
2014-Dec-17 03:33N 31°37' E 121°16'1211.7
2014-Dec-17 02:33N 31°45' E 121°05'1111.4
2014-Dec-17 01:33N 31°51' E 120°54'4 3.7
2014-Dec-17 00:31N 31°55' E 120°53'0 0.0
2014-Dec-16 23:31N 31°55' E 120°53'0 0.0
2014-Dec-16 22:31N 31°55' E 120°53'0 0.0
2014-Dec-16 21:31N 31°55' E 120°53'0 0.0
2014-Dec-16 20:31N 31°55' E 120°53'0 0.0
2014-Dec-16 19:31N 31°55' E 120°53'0 0.0
2014-Dec-16 18:31N 31°55' E 120°53'0 0.0
2014-Dec-16 17:31N 31°55' E 120°53'0 0.0
2014-Dec-16 16:31N 31°55' E 120°53'0 0.0
2014-Dec-16 15:28N 31°55' E 120°53'0 0.1
2014-Dec-16 14:31N 31°55' E 120°53'0 0.0
2014-Dec-16 13:25N 31°55' E 120°53'0 0.0
2014-Dec-16 12:31N 31°55' E 120°53'0 0.0
2014-Dec-16 11:28N 31°55' E 120°53'0 0.0
2014-Dec-16 10:22N 31°55' E 120°53'0 0.0
2014-Dec-16 09:28N 31°55' E 120°53'0 0.0
2014-Dec-16 08:28N 31°55' E 120°53'0 0.0
2014-Dec-16 07:28N 31°55' E 120°53'0 0.0
2014-Dec-16 06:31N 31°55' E 120°53'0 0.1
2014-Dec-16 05:22N 31°55' E 120°53'0 0.2
2014-Dec-16 04:30N 31°55' E 120°53'6 6.0
2014-Dec-16 03:32N 31°49' E 120°55'2 1.9
2014-Dec-16 02:33N 31°49' E 120°57'0 0.0
2014-Dec-15 23:33N 31°49' E 120°57'0 0.0
2014-Dec-15 22:15N 31°49' E 120°57'0 0.0
2014-Dec-15 21:33N 31°49' E 120°57'0 0.0
2014-Dec-15 20:33N 31°49' E 120°57'0 0.0
2014-Dec-15 19:30N 31°49' E 120°57'0 0.0
2014-Dec-15 18:30N 31°49' E 120°57'0 0.0
2014-Dec-15 17:30N 31°49' E 120°57'0 0.0
2014-Dec-15 16:33N 31°49' E 120°57'0 0.0
2014-Dec-15 15:09N 31°49' E 120°57'0 0.0
2014-Dec-15 14:21N 31°49' E 120°57'0 0.0
2014-Dec-15 13:30N 31°49' E 120°57'0 0.0
2014-Dec-15 12:30N 31°49' E 120°57'0 0.0
2014-Dec-15 10:06N 31°49' E 120°57'0 0.0
2014-Dec-15 08:18N 31°49' E 120°57'0 0.1
2014-Dec-15 07:30N 31°49' E 120°57'0 0.0
2014-Dec-15 05:24N 31°49' E 120°57'0 0.0
2014-Dec-15 04:18N 31°49' E 120°57'0 0.0
2014-Dec-15 03:30N 31°49' E 120°57'0 0.0
2014-Dec-15 02:30N 31°49' E 120°57'0 0.0
2014-Dec-15 01:33N 31°49' E 120°57'0 0.0
2014-Dec-15 00:33N 31°49' E 120°57'0 0.0
2014-Dec-14 23:30N 31°49' E 120°57'0 0.0
2014-Dec-14 22:33N 31°49' E 120°57'0 0.0
2014-Dec-14 21:33N 31°49' E 120°57'0 0.0
2014-Dec-14 20:33N 31°49' E 120°57'0 0.0
2014-Dec-14 19:30N 31°49' E 120°57'0 0.0
2014-Dec-14 18:33N 31°49' E 120°57'0 0.0
2014-Dec-14 17:33N 31°49' E 120°57'0 0.0
2014-Dec-14 16:09N 31°49' E 120°57'0 0.0
2014-Dec-14 15:27N 31°49' E 120°57'0 0.0
2014-Dec-14 14:33N 31°49' E 120°57'2 1.1
2014-Dec-14 12:33N 31°47' E 120°59'3 2.5
2014-Dec-14 11:33N 31°48' E 120°56'7 7.3
2014-Dec-14 10:33N 31°54' E 120°53'1 1.2
2014-Dec-14 09:32N 31°56' E 120°53'0 0.1
2014-Dec-14 08:32N 31°56' E 120°53'0 0.0
2014-Dec-14 07:29N 31°56' E 120°53'0 0.0
2014-Dec-14 06:23N 31°56' E 120°53'0 0.1
2014-Dec-14 05:26N 31°56' E 120°53'0 0.0
2014-Dec-14 04:29N 31°56' E 120°53'0 0.0
2014-Dec-14 03:29N 31°56' E 120°53'6 6.8
2014-Dec-14 02:33N 31°50' E 120°55'1010.2
2014-Dec-14 01:33N 31°45' E 121°05'1010.3
2014-Dec-14 00:33N 31°38' E 121°15'1212.0
2014-Dec-13 23:33N 31°30' E 121°25'9 9.1
2014-Dec-13 22:33N 31°24' E 121°33'8 8.0
2014-Dec-13 21:33N 31°20' E 121°41'1111.4
2014-Dec-13 20:33N 31°16' E 121°53'1212.4
2014-Dec-13 19:33N 31°13' E 122°08'1212.1
2014-Dec-13 18:33N 31°06' E 122°19'304 8.4
2014-Dec-12 06:20N 35°58' E 120°36'1013.4
2014-Dec-12 05:33N 36°00' E 120°24'7 5.5
2014-Dec-12 04:21N 36°06' E 120°19'0 0.2
2014-Dec-12 03:27N 36°06' E 120°19'0 0.0
2014-Dec-12 02:33N 36°06' E 120°19'0 0.0
2014-Dec-12 01:03N 36°06' E 120°19'0 0.0
2014-Dec-11 23:21N 36°06' E 120°19'0 0.0
2014-Dec-11 22:27N 36°06' E 120°19'0 0.0
2014-Dec-11 21:33N 36°06' E 120°19'0 0.0
2014-Dec-11 20:33N 36°06' E 120°19'0 0.0
2014-Dec-11 19:33N 36°06' E 120°19'0 0.0
2014-Dec-11 18:33N 36°06' E 120°19'0 0.0
2014-Dec-11 17:33N 36°06' E 120°19'0 0.0
2014-Dec-11 16:33N 36°06' E 120°19'0 0.0
2014-Dec-11 15:33N 36°06' E 120°19'0 0.0
2014-Dec-11 14:33N 36°06' E 120°19'0 0.0
2014-Dec-11 13:33N 36°06' E 120°19'0 0.0
2014-Dec-11 12:33N 36°06' E 120°19'0 0.0
2014-Dec-11 11:33N 36°06' E 120°19'0 0.0
2014-Dec-11 10:33N 36°06' E 120°19'0 0.0
2014-Dec-11 09:21N 36°06' E 120°19'0 0.0
2014-Dec-11 08:33N 36°06' E 120°19'0 0.0
2014-Dec-11 07:27N 36°06' E 120°19'0 0.0
2014-Dec-11 06:21N 36°06' E 120°19'0 0.0
2014-Dec-11 05:33N 36°06' E 120°19'0 0.0
2014-Dec-11 04:30N 36°06' E 120°19'0 0.0
2014-Dec-11 03:33N 36°06' E 120°19'0 0.0
2014-Dec-11 01:27N 36°06' E 120°19'0 0.0
2014-Dec-10 23:21N 36°06' E 120°19'0 0.0
2014-Dec-10 22:33N 36°06' E 120°19'0 0.0
2014-Dec-10 21:30N 36°06' E 120°19'0 0.0
2014-Dec-10 20:30N 36°06' E 120°19'0 0.0
2014-Dec-10 18:30N 36°06' E 120°19'0 0.0
2014-Dec-10 16:30N 36°06' E 120°19'4 2.2
2014-Dec-10 14:33N 36°02' E 120°19'6 2.9
2014-Dec-10 12:26N 35°58' E 120°26'0 0.1
2014-Dec-10 11:32N 35°58' E 120°26'0 0.0
2014-Dec-10 10:32N 35°58' E 120°26'0 0.1
2014-Dec-10 09:32N 35°58' E 120°26'0 0.0
2014-Dec-10 08:32N 35°58' E 120°26'0 0.1
2014-Dec-10 07:32N 35°58' E 120°26'0 0.2
2014-Dec-10 06:32N 35°58' E 120°26'0 0.0
2014-Dec-10 05:26N 35°58' E 120°26'0 0.0
2014-Dec-10 04:32N 35°58' E 120°26'0 0.0
2014-Dec-10 03:32N 35°58' E 120°26'0 0.0
2014-Dec-10 02:32N 35°58' E 120°26'0 0.0
2014-Dec-10 01:26N 35°58' E 120°26'0 0.2
2014-Dec-10 00:33N 35°58' E 120°26'4 3.8
2014-Dec-09 23:33N 35°60' E 120°30'  
Track history (hours):
 
Tides and Currents Weather Stations Pressure Air Temp Water Temp Dewpoint Dewpoint Depression Visibility Wind Speed Wind Dir Waves Ship Positions

New Creation

Last reported at 2014-Dec-17 09:33 UTC. Time now 2014-Dec-18 22:26 UTC.
Position N 31°01' E 122°22'.

Length 176 m; draft 6 m.

Type: Cargo ship. MMSI: 353507000.

Date/timePositionNaut miles runAvg speedWind from/ knotsBaromVisibWave heightAir tempDewpointWater temp
2014-Dec-17 09:33N 31°01' E 122°22'1111.4
2014-Dec-17 08:33N 31°03' E 122°09'1010.2
2014-Dec-17 07:33N 31°06' E 121°57'1413.7
2014-Dec-17 06:33N 31°16' E 121°46'1212.3
2014-Dec-17 05:33N 31°23' E 121°34'10 9.9
2014-Dec-17 04:33N 31°30' E 121°25'1111.3
2014-Dec-17 03:33N 31°37' E 121°16'1211.7
2014-Dec-17 02:33N 31°45' E 121°05'1111.4
2014-Dec-17 01:33N 31°51' E 120°54'4 3.7
2014-Dec-17 00:31N 31°55' E 120°53'0 0.0
2014-Dec-16 23:31N 31°55' E 120°53'0 0.0
2014-Dec-16 22:31N 31°55' E 120°53'0 0.0
2014-Dec-16 21:31N 31°55' E 120°53'0 0.0
2014-Dec-16 20:31N 31°55' E 120°53'0 0.0
2014-Dec-16 19:31N 31°55' E 120°53'0 0.0
2014-Dec-16 18:31N 31°55' E 120°53'0 0.0
2014-Dec-16 17:31N 31°55' E 120°53'0 0.0
2014-Dec-16 16:31N 31°55' E 120°53'0 0.0
2014-Dec-16 15:28N 31°55' E 120°53'0 0.1
2014-Dec-16 14:31N 31°55' E 120°53'0 0.0
2014-Dec-16 13:25N 31°55' E 120°53'0 0.0
2014-Dec-16 12:31N 31°55' E 120°53'0 0.0
2014-Dec-16 11:28N 31°55' E 120°53'0 0.0
2014-Dec-16 10:22N 31°55' E 120°53'0 0.0
2014-Dec-16 09:28N 31°55' E 120°53'0 0.0
2014-Dec-16 08:28N 31°55' E 120°53'0 0.0
2014-Dec-16 07:28N 31°55' E 120°53'0 0.0
2014-Dec-16 06:31N 31°55' E 120°53'0 0.1
2014-Dec-16 05:22N 31°55' E 120°53'0 0.2
2014-Dec-16 04:30N 31°55' E 120°53'6 6.0
2014-Dec-16 03:32N 31°49' E 120°55'2 1.9
2014-Dec-16 02:33N 31°49' E 120°57'0 0.0
2014-Dec-15 23:33N 31°49' E 120°57'0 0.0
2014-Dec-15 22:15N 31°49' E 120°57'0 0.0
2014-Dec-15 21:33N 31°49' E 120°57'0 0.0
2014-Dec-15 20:33N 31°49' E 120°57'0 0.0
2014-Dec-15 19:30N 31°49' E 120°57'0 0.0
2014-Dec-15 18:30N 31°49' E 120°57'0 0.0
2014-Dec-15 17:30N 31°49' E 120°57'0 0.0
2014-Dec-15 16:33N 31°49' E 120°57'0 0.0
2014-Dec-15 15:09N 31°49' E 120°57'0 0.0
2014-Dec-15 14:21N 31°49' E 120°57'0 0.0
2014-Dec-15 13:30N 31°49' E 120°57'0 0.0
2014-Dec-15 12:30N 31°49' E 120°57'0 0.0
2014-Dec-15 10:06N 31°49' E 120°57'0 0.0
2014-Dec-15 08:18N 31°49' E 120°57'0 0.1
2014-Dec-15 07:30N 31°49' E 120°57'0 0.0
2014-Dec-15 05:24N 31°49' E 120°57'0 0.0
2014-Dec-15 04:18N 31°49' E 120°57'0 0.0
2014-Dec-15 03:30N 31°49' E 120°57'0 0.0
2014-Dec-15 02:30N 31°49' E 120°57'0 0.0
2014-Dec-15 01:33N 31°49' E 120°57'0 0.0
2014-Dec-15 00:33N 31°49' E 120°57'0 0.0
2014-Dec-14 23:30N 31°49' E 120°57'0 0.0
2014-Dec-14 22:33N 31°49' E 120°57'0 0.0
2014-Dec-14 21:33N 31°49' E 120°57'0 0.0
2014-Dec-14 20:33N 31°49' E 120°57'0 0.0
2014-Dec-14 19:30N 31°49' E 120°57'0 0.0
2014-Dec-14 18:33N 31°49' E 120°57'0 0.0
2014-Dec-14 17:33N 31°49' E 120°57'0 0.0
2014-Dec-14 16:09N 31°49' E 120°57'0 0.0
2014-Dec-14 15:27N 31°49' E 120°57'0 0.0
2014-Dec-14 14:33N 31°49' E 120°57'2 1.1
2014-Dec-14 12:33N 31°47' E 120°59'3 2.5
2014-Dec-14 11:33N 31°48' E 120°56'7 7.3
2014-Dec-14 10:33N 31°54' E 120°53'1 1.2
2014-Dec-14 09:32N 31°56' E 120°53'0 0.1
2014-Dec-14 08:32N 31°56' E 120°53'0 0.0
2014-Dec-14 07:29N 31°56' E 120°53'0 0.0
2014-Dec-14 06:23N 31°56' E 120°53'0 0.1
2014-Dec-14 05:26N 31°56' E 120°53'0 0.0
2014-Dec-14 04:29N 31°56' E 120°53'0 0.0
2014-Dec-14 03:29N 31°56' E 120°53'6 6.8
2014-Dec-14 02:33N 31°50' E 120°55'1010.2
2014-Dec-14 01:33N 31°45' E 121°05'1010.3
2014-Dec-14 00:33N 31°38' E 121°15'1212.0
2014-Dec-13 23:33N 31°30' E 121°25'9 9.1
2014-Dec-13 22:33N 31°24' E 121°33'8 8.0
2014-Dec-13 21:33N 31°20' E 121°41'1111.4
2014-Dec-13 20:33N 31°16' E 121°53'1212.4
2014-Dec-13 19:33N 31°13' E 122°08'1212.1
2014-Dec-13 18:33N 31°06' E 122°19'304 8.4
2014-Dec-12 06:20N 35°58' E 120°36'1013.4
2014-Dec-12 05:33N 36°00' E 120°24'7 5.5
2014-Dec-12 04:21N 36°06' E 120°19'0 0.2
2014-Dec-12 03:27N 36°06' E 120°19'0 0.0
2014-Dec-12 02:33N 36°06' E 120°19'0 0.0
2014-Dec-12 01:03N 36°06' E 120°19'0 0.0
2014-Dec-11 23:21N 36°06' E 120°19'0 0.0
2014-Dec-11 22:27N 36°06' E 120°19'0 0.0
2014-Dec-11 21:33N 36°06' E 120°19'0 0.0
2014-Dec-11 20:33N 36°06' E 120°19'0 0.0
2014-Dec-11 19:33N 36°06' E 120°19'0 0.0
2014-Dec-11 18:33N 36°06' E 120°19'0 0.0
2014-Dec-11 17:33N 36°06' E 120°19'0 0.0
2014-Dec-11 16:33N 36°06' E 120°19'0 0.0
2014-Dec-11 15:33N 36°06' E 120°19'0 0.0
2014-Dec-11 14:33N 36°06' E 120°19'0 0.0
2014-Dec-11 13:33N 36°06' E 120°19'0 0.0
2014-Dec-11 12:33N 36°06' E 120°19'0 0.0
2014-Dec-11 11:33N 36°06' E 120°19'0 0.0
2014-Dec-11 10:33N 36°06' E 120°19'0 0.0
2014-Dec-11 09:21N 36°06' E 120°19'0 0.0
2014-Dec-11 08:33N 36°06' E 120°19'0 0.0
2014-Dec-11 07:27N 36°06' E 120°19'0 0.0
2014-Dec-11 06:21N 36°06' E 120°19'0 0.0
2014-Dec-11 05:33N 36°06' E 120°19'0 0.0
2014-Dec-11 04:30N 36°06' E 120°19'0 0.0
2014-Dec-11 03:33N 36°06' E 120°19'0 0.0
2014-Dec-11 01:27N 36°06' E 120°19'0 0.0
2014-Dec-10 23:21N 36°06' E 120°19'0 0.0
2014-Dec-10 22:33N 36°06' E 120°19'0 0.0
2014-Dec-10 21:30N 36°06' E 120°19'0 0.0
2014-Dec-10 20:30N 36°06' E 120°19'0 0.0
2014-Dec-10 18:30N 36°06' E 120°19'0 0.0
2014-Dec-10 16:30N 36°06' E 120°19'4 2.2
2014-Dec-10 14:33N 36°02' E 120°19'6 2.9
2014-Dec-10 12:26N 35°58' E 120°26'0 0.1
2014-Dec-10 11:32N 35°58' E 120°26'0 0.0
2014-Dec-10 10:32N 35°58' E 120°26'0 0.1
2014-Dec-10 09:32N 35°58' E 120°26'0 0.0
2014-Dec-10 08:32N 35°58' E 120°26'0 0.1
2014-Dec-10 07:32N 35°58' E 120°26'0 0.2
2014-Dec-10 06:32N 35°58' E 120°26'0 0.0
2014-Dec-10 05:26N 35°58' E 120°26'0 0.0
2014-Dec-10 04:32N 35°58' E 120°26'0 0.0
2014-Dec-10 03:32N 35°58' E 120°26'0 0.0
2014-Dec-10 02:32N 35°58' E 120°26'0 0.0
2014-Dec-10 01:26N 35°58' E 120°26'0 0.2
2014-Dec-10 00:33N 35°58' E 120°26'4 3.8
2014-Dec-09 23:33N 35°60' E 120°30'  

Dump ship's entire track history